Time;durP1;ratioP1;P1;durP2;ratioP2;P2;SDS_P1;SDS_P2;PMS_P1;PMS_P2;Temp;Humidity;BMP_temperature;BMP_pressure;BME280_temperature;BME280_humidity;BME280_pressure;Samples;Min_cycle;Max_cycle;Signal;HPM_P1;HPM_P2
2022/04/14 00:02:18;;;;;;;7.25;4.80;;;;;;;;;;4955093;28;20055;-70
2022/04/14 00:04:45;;;;;;;10.57;4.55;;;;;;;;;;4955373;29;20051;-70
2022/04/14 00:07:12;;;;;;;7.85;5.15;;;;;;;;;;4955251;28;20051;-69
2022/04/14 00:09:38;;;;;;;9.02;5.30;;;;;;;;;;4955273;29;20471;-69
2022/04/14 00:12:06;;;;;;;8.02;5.22;;;;;;;;;;4960720;28;20043;-69
2022/04/14 00:14:32;;;;;;;8.80;5.65;;;;;;;;;;4974575;28;20062;-69
2022/04/14 00:16:59;;;;;;;10.75;5.07;;;;;;;;;;4974667;28;20465;-69
2022/04/14 00:19:26;;;;;;;8.15;5.72;;;;;;;;;;4975733;28;20082;-69
2022/04/14 00:21:52;;;;;;;8.30;5.60;;;;;;;;;;4975418;28;20516;-70
2022/04/14 00:24:19;;;;;;;9.57;5.70;;;;;;;;;;4975536;28;20521;-70
2022/04/14 00:26:46;;;;;;;5.65;4.57;;;;;;;;;;4974208;28;20051;-70
2022/04/14 00:29:12;;;;;;;9.40;5.38;;;;;;;;;;4975583;28;20062;-70
2022/04/14 00:31:39;;;;;;;11.65;5.03;;;;;;;;;;4975481;28;20050;-70
2022/04/14 00:34:06;;;;;;;5.90;4.30;;;;;;;;;;4958323;28;20054;-70
2022/04/14 00:36:33;;;;;;;13.32;4.57;;;;;;;;;;4958514;28;20055;-70
2022/04/14 00:38:59;;;;;;;9.55;4.85;;;;;;;;;;4957979;28;20050;-70
2022/04/14 00:41:29;;;;;;;9.35;4.68;;;;;;;;;;4973666;28;20120;-70
2022/04/14 00:43:55;;;;;;;5.97;4.15;;;;;;;;;;4974151;28;20097;-70
2022/04/14 00:46:22;;;;;;;9.93;4.57;;;;;;;;;;4975116;28;20576;-70
2022/04/14 00:48:49;;;;;;;8.35;4.63;;;;;;;;;;4973846;28;20097;-70
2022/04/14 00:51:16;;;;;;;10.55;4.95;;;;;;;;;;4957790;28;20080;-70
2022/04/14 00:53:42;;;;;;;7.00;4.45;;;;;;;;;;4973674;28;20046;-70
2022/04/14 00:56:09;;;;;;;8.45;5.18;;;;;;;;;;4973750;28;20054;-70
2022/04/14 00:58:36;;;;;;;7.75;5.05;;;;;;;;;;4957700;28;20047;-70
2022/04/14 01:01:05;;;;;;;10.52;5.90;;;;;;;;;;4957863;28;20466;-70
2022/04/14 01:03:33;;;;;;;13.55;5.13;;;;;;;;;;4957974;28;20047;-70
2022/04/14 01:05:59;;;;;;;7.35;5.70;;;;;;;;;;4973637;28;20046;-70
2022/04/14 01:08:30;;;;;;;9.65;5.28;;;;;;;;;;4957558;28;20106;-70
2022/04/14 01:10:57;;;;;;;7.70;4.80;;;;;;;;;;4973421;28;20054;-70
2022/04/14 01:13:23;;;;;;;9.15;5.00;;;;;;;;;;4956580;28;20046;-70
2022/04/14 01:15:56;;;;;;;7.03;5.15;;;;;;;;;;4973571;28;20139;-70
2022/04/14 01:18:22;;;;;;;8.90;5.43;;;;;;;;;;4957562;28;20528;-70
2022/04/14 01:20:49;;;;;;;9.43;6.00;;;;;;;;;;4973112;28;20109;-70
2022/04/14 01:23:18;;;;;;;8.82;5.55;;;;;;;;;;4974294;28;20047;-70
2022/04/14 01:25:45;;;;;;;10.35;6.57;;;;;;;;;;4957631;28;20520;-70
2022/04/14 01:28:11;;;;;;;6.07;4.85;;;;;;;;;;4973266;28;20473;-70
2022/04/14 01:30:39;;;;;;;8.32;5.50;;;;;;;;;;4973280;28;20055;-70
2022/04/14 01:33:05;;;;;;;8.38;5.68;;;;;;;;;;4956793;28;20453;-70
2022/04/14 01:35:32;;;;;;;6.30;5.38;;;;;;;;;;4974209;28;20055;-70
2022/04/14 01:37:59;;;;;;;8.05;5.85;;;;;;;;;;4973032;28;20059;-70
2022/04/14 01:40:26;;;;;;;6.10;4.88;;;;;;;;;;4974015;28;20101;-70
2022/04/14 01:42:52;;;;;;;6.97;5.38;;;;;;;;;;4972839;28;20102;-70
2022/04/14 01:45:19;;;;;;;8.95;5.05;;;;;;;;;;4973067;28;20105;-70
2022/04/14 01:47:46;;;;;;;8.77;4.78;;;;;;;;;;4974195;28;20058;-70
2022/04/14 01:50:14;;;;;;;7.07;4.93;;;;;;;;;;4972936;28;20548;-70
2022/04/14 01:52:42;;;;;;;10.10;5.80;;;;;;;;;;4972789;28;20054;-69
2022/04/14 01:55:12;;;;;;;11.07;5.70;;;;;;;;;;4957086;28;20494;-70
2022/04/14 01:57:39;;;;;;;8.38;5.30;;;;;;;;;;4972812;28;20477;-70
2022/04/14 02:00:10;;;;;;;10.88;5.95;;;;;;;;;;4972818;28;20055;-70
2022/04/14 02:02:36;;;;;;;7.70;4.80;;;;;;;;;;4972472;28;20043;-70
2022/04/14 02:05:04;;;;;;;9.40;5.78;;;;;;;;;;4956772;28;20055;-70
2022/04/14 02:07:31;;;;;;;6.55;4.40;;;;;;;;;;4956536;28;20109;-70
2022/04/14 02:09:57;;;;;;;9.23;5.00;;;;;;;;;;4956734;28;20094;-70
2022/04/14 02:12:27;;;;;;;8.48;4.95;;;;;;;;;;4973455;28;20046;-69
2022/04/14 02:14:54;;;;;;;7.07;4.40;;;;;;;;;;4973523;28;20081;-70
2022/04/14 02:17:21;;;;;;;6.55;4.53;;;;;;;;;;4973447;28;20146;-70
2022/04/14 02:19:47;;;;;;;12.68;5.13;;;;;;;;;;4972441;28;20051;-69
2022/04/14 02:22:14;;;;;;;8.20;4.80;;;;;;;;;;5007334;23;21173;-67
2022/04/14 02:24:41;;;;;;;6.93;4.32;;;;;;;;;;5031922;28;20111;-67
2022/04/14 02:27:08;;;;;;;8.75;4.72;;;;;;;;;;5031047;28;20057;-67
2022/04/14 02:29:34;;;;;;;10.07;5.30;;;;;;;;;;5032003;28;20114;-67
2022/04/14 02:32:01;;;;;;;7.05;4.90;;;;;;;;;;5032157;28;20415;-67
2022/04/14 02:34:28;;;;;;;6.07;4.65;;;;;;;;;;5032005;28;20049;-67
2022/04/14 02:36:54;;;;;;;8.68;4.97;;;;;;;;;;5032114;28;20061;-65
2022/04/14 02:39:21;;;;;;;8.05;5.22;;;;;;;;;;5032189;28;20049;-67
2022/04/14 02:41:48;;;;;;;7.47;4.78;;;;;;;;;;5031813;28;20454;-67
2022/04/14 02:44:14;;;;;;;8.60;5.70;;;;;;;;;;5031702;28;20093;-67
2022/04/14 02:46:41;;;;;;;9.48;5.45;;;;;;;;;;5031789;28;20060;-66
2022/04/14 02:49:07;;;;;;;10.32;5.38;;;;;;;;;;5032052;28;20095;-67
2022/04/14 02:51:34;;;;;;;8.55;5.40;;;;;;;;;;5031486;28;20530;-67
2022/04/14 02:54:01;;;;;;;11.00;5.18;;;;;;;;;;5031678;28;20555;-67
2022/04/14 02:56:27;;;;;;;10.70;4.93;;;;;;;;;;5031621;28;20107;-67
2022/04/14 02:58:54;;;;;;;10.55;5.50;;;;;;;;;;5031719;28;20488;-68
2022/04/14 03:01:20;;;;;;;8.30;5.25;;;;;;;;;;5031537;28;20053;-68
2022/04/14 03:03:47;;;;;;;7.57;4.43;;;;;;;;;;5031553;28;20477;-66
2022/04/14 03:06:14;;;;;;;5.07;4.57;;;;;;;;;;5031535;28;20049;-67
2022/04/14 03:08:41;;;;;;;7.50;5.72;;;;;;;;;;5031868;28;20053;-67
2022/04/14 03:11:08;;;;;;;10.52;5.47;;;;;;;;;;5031449;28;20100;-68
2022/04/14 03:13:35;;;;;;;9.20;6.68;;;;;;;;;;5031870;28;20049;-67
2022/04/14 03:16:01;;;;;;;11.23;6.90;;;;;;;;;;5031560;28;20053;-67
2022/04/14 03:18:28;;;;;;;9.18;6.28;;;;;;;;;;5031530;28;20053;-67
2022/04/14 03:20:55;;;;;;;10.38;6.45;;;;;;;;;;5031301;28;20526;-67
2022/04/14 03:23:23;;;;;;;9.23;7.00;;;;;;;;;;5031251;28;20049;-66
2022/04/14 03:25:49;;;;;;;10.23;7.35;;;;;;;;;;5031324;28;20049;-67
2022/04/14 03:28:16;;;;;;;10.07;6.55;;;;;;;;;;5031506;28;20373;-67
2022/04/14 03:30:42;;;;;;;11.32;5.63;;;;;;;;;;5031525;28;20057;-68
2022/04/14 03:33:09;;;;;;;9.10;5.10;;;;;;;;;;5031478;28;20046;-67
2022/04/14 03:35:36;;;;;;;5.95;4.45;;;;;;;;;;5031717;28;20053;-68
2022/04/14 03:38:02;;;;;;;6.07;4.50;;;;;;;;;;5034727;28;20561;-68
2022/04/14 03:40:49;;;;;;;9.10;5.18;;;;;;;;;;5035055;28;20046;-67
2022/04/14 03:43:16;;;;;;;9.02;5.13;;;;;;;;;;5035427;28;20492;-67
2022/04/14 03:45:42;;;;;;;5.70;4.38;;;;;;;;;;5037685;28;20103;-68
2022/04/14 03:48:09;;;;;;;6.60;5.22;;;;;;;;;;5036937;28;20053;-66
2022/04/14 03:50:36;;;;;;;7.13;4.78;;;;;;;;;;5045493;28;20544;-69
2022/04/14 03:53:02;;;;;;;9.02;5.10;;;;;;;;;;5044845;28;20046;-66
2022/04/14 03:55:29;;;;;;;9.13;6.22;;;;;;;;;;5041130;28;20049;-67
2022/04/14 03:57:56;;;;;;;7.88;5.78;;;;;;;;;;5038588;28;20053;-67
2022/04/14 04:00:23;;;;;;;6.07;5.47;;;;;;;;;;5035017;28;20049;-67
2022/04/14 04:02:49;;;;;;;10.40;5.45;;;;;;;;;;5034502;28;20049;-67
2022/04/14 04:05:16;;;;;;;7.45;6.43;;;;;;;;;;5034912;28;20053;-67
2022/04/14 04:07:43;;;;;;;6.45;5.38;;;;;;;;;;5034728;28;20053;-67
2022/04/14 04:10:09;;;;;;;8.60;5.60;;;;;;;;;;5034906;28;20415;-68
2022/04/14 04:12:36;;;;;;;6.78;5.68;;;;;;;;;;5034611;28;20103;-67
2022/04/14 04:15:03;;;;;;;8.95;6.40;;;;;;;;;;5034623;28;20053;-67
2022/04/14 04:17:29;;;;;;;11.55;7.00;;;;;;;;;;5034629;28;20060;-67
2022/04/14 04:19:56;;;;;;;10.70;7.07;;;;;;;;;;5034414;28;20053;-68
2022/04/14 04:22:23;;;;;;;9.90;7.20;;;;;;;;;;5034099;28;20176;-67
2022/04/14 04:24:50;;;;;;;12.27;6.50;;;;;;;;;;5034402;28;20488;-67
2022/04/14 04:27:17;;;;;;;9.88;6.78;;;;;;;;;;5033829;28;20049;-67
2022/04/14 04:29:44;;;;;;;8.35;6.18;;;;;;;;;;5034299;28;20557;-67
2022/04/14 04:32:11;;;;;;;11.48;6.10;;;;;;;;;;5034171;28;20106;-67
2022/04/14 04:34:37;;;;;;;9.32;5.82;;;;;;;;;;5033957;28;20049;-67
2022/04/14 04:37:04;;;;;;;9.95;5.82;;;;;;;;;;5034040;28;20049;-67
2022/04/14 04:39:31;;;;;;;10.45;5.68;;;;;;;;;;5034043;28;20095;-67
2022/04/14 04:41:57;;;;;;;8.60;6.07;;;;;;;;;;5033868;28;20057;-67
2022/04/14 04:44:24;;;;;;;10.82;5.95;;;;;;;;;;5033700;28;20053;-68
2022/04/14 04:46:51;;;;;;;15.02;6.60;;;;;;;;;;5030043;28;20515;-67
2022/04/14 04:49:17;;;;;;;10.60;5.03;;;;;;;;;;5014190;28;20066;-67
2022/04/14 04:51:44;;;;;;;11.95;5.55;;;;;;;;;;5016948;28;20049;-67
2022/04/14 04:54:11;;;;;;;10.23;7.13;;;;;;;;;;5025206;28;20052;-67
2022/04/14 04:56:38;;;;;;;10.82;6.22;;;;;;;;;;5023038;28;20179;-66
2022/04/14 04:59:04;;;;;;;8.70;5.93;;;;;;;;;;5019199;28;20092;-67
2022/04/14 05:01:31;;;;;;;7.28;6.15;;;;;;;;;;5016264;28;20512;-67
2022/04/14 05:03:58;;;;;;;9.10;5.45;;;;;;;;;;5016786;28;20085;-67
2022/04/14 05:06:24;;;;;;;6.68;5.15;;;;;;;;;;5017583;28;20061;-66
2022/04/14 05:08:51;;;;;;;8.63;5.65;;;;;;;;;;5013792;28;20046;-66
2022/04/14 05:11:18;;;;;;;8.57;4.70;;;;;;;;;;5013926;28;20464;-67
2022/04/14 05:13:46;;;;;;;7.88;4.95;;;;;;;;;;5025471;28;20045;-67
2022/04/14 05:16:13;;;;;;;9.40;4.95;;;;;;;;;;5020348;28;20052;-67
2022/04/14 05:18:40;;;;;;;7.85;4.88;;;;;;;;;;5022595;28;20049;-66
2022/04/14 05:21:07;;;;;;;10.48;4.90;;;;;;;;;;5015712;28;20053;-68
2022/04/14 05:23:33;;;;;;;10.38;5.30;;;;;;;;;;5015983;28;20041;-67
2022/04/14 05:26:00;;;;;;;10.75;5.25;;;;;;;;;;5020229;28;20459;-67
2022/04/14 05:28:27;;;;;;;7.78;5.50;;;;;;;;;;5018597;28;20049;-67
2022/04/14 05:30:54;;;;;;;9.85;5.88;;;;;;;;;;5016552;28;20053;-67
2022/04/14 05:33:20;;;;;;;12.43;6.18;;;;;;;;;;5032920;28;20546;-66
2022/04/14 05:35:47;;;;;;;9.32;5.70;;;;;;;;;;5033020;28;20093;-67
2022/04/14 05:38:14;;;;;;;8.35;5.80;;;;;;;;;;5033105;28;20049;-67
2022/04/14 05:40:43;;;;;;;9.80;6.13;;;;;;;;;;5032972;28;20457;-66
2022/04/14 05:43:21;;;;;;;6.85;6.07;;;;;;;;;;5033195;28;20087;-67
2022/04/14 05:45:48;;;;;;;8.80;6.53;;;;;;;;;;5032160;28;20053;-67
2022/04/14 05:48:15;;;;;;;8.27;5.68;;;;;;;;;;5033128;28;20049;-67
2022/04/14 05:50:43;;;;;;;8.50;5.88;;;;;;;;;;5032618;28;20500;-67
2022/04/14 05:53:10;;;;;;;11.20;6.88;;;;;;;;;;5032753;28;20436;-66
2022/04/14 05:55:36;;;;;;;9.85;6.28;;;;;;;;;;5032657;28;20045;-67
2022/04/14 05:58:03;;;;;;;9.07;5.60;;;;;;;;;;5032420;28;20049;-66
2022/04/14 06:00:34;;;;;;;10.70;5.85;;;;;;;;;;5032028;28;20049;-67
2022/04/14 06:03:01;;;;;;;9.10;6.82;;;;;;;;;;5032312;28;20424;-67
2022/04/14 06:05:31;;;;;;;12.07;6.10;;;;;;;;;;5032602;28;20069;-67
2022/04/14 06:07:57;;;;;;;7.82;5.60;;;;;;;;;;5032652;28;20239;-66
2022/04/14 06:10:25;;;;;;;11.57;6.45;;;;;;;;;;5032328;28;20508;-67
2022/04/14 06:12:54;;;;;;;8.15;6.00;;;;;;;;;;5032031;28;20515;-67
2022/04/14 06:15:21;;;;;;;9.30;6.60;;;;;;;;;;5032476;28;20046;-66
2022/04/14 06:17:48;;;;;;;12.32;6.68;;;;;;;;;;5032367;28;20053;-66
2022/04/14 06:20:15;;;;;;;8.82;6.38;;;;;;;;;;5031199;28;20049;-67
2022/04/14 06:22:42;;;;;;;17.15;7.07;;;;;;;;;;5031910;28;20057;-67
2022/04/14 06:25:13;;;;;;;12.40;7.63;;;;;;;;;;5032313;28;20103;-67
2022/04/14 06:27:40;;;;;;;17.15;10.20;;;;;;;;;;5030391;28;20055;-67
2022/04/14 06:30:09;;;;;;;17.83;11.27;;;;;;;;;;5030252;28;20053;-67
2022/04/14 06:32:36;;;;;;;25.73;14.80;;;;;;;;;;5029937;28;20049;-67
2022/04/14 06:35:03;;;;;;;25.33;16.15;;;;;;;;;;5029870;28;20059;-66
2022/04/14 06:37:30;;;;;;;25.98;18.83;;;;;;;;;;5030271;28;20107;-66
2022/04/14 06:39:57;;;;;;;29.98;20.52;;;;;;;;;;5029797;28;20124;-67
2022/04/14 06:42:43;;;;;;;36.50;22.73;;;;;;;;;;5029530;28;20556;-67
2022/04/14 06:45:10;;;;;;;41.20;25.80;;;;;;;;;;5029902;28;20052;-67
2022/04/14 06:47:36;;;;;;;38.58;24.88;;;;;;;;;;5029815;28;20443;-67
2022/04/14 06:50:03;;;;;;;37.47;23.58;;;;;;;;;;5029711;28;20139;-67
2022/04/14 06:52:30;;;;;;;33.90;24.70;;;;;;;;;;5029849;28;20049;-67
2022/04/14 06:54:56;;;;;;;28.90;22.05;;;;;;;;;;5029466;28;20049;-67
2022/04/14 06:57:23;;;;;;;33.13;23.42;;;;;;;;;;5029790;28;20111;-67
2022/04/14 06:59:50;;;;;;;34.42;23.75;;;;;;;;;;5029696;28;20554;-67
2022/04/14 07:02:16;;;;;;;38.60;22.90;;;;;;;;;;5029517;28;20046;-67
2022/04/14 07:04:43;;;;;;;32.15;23.65;;;;;;;;;;5029414;28;20046;-67
2022/04/14 07:07:10;;;;;;;36.08;24.58;;;;;;;;;;5029147;28;20455;-67
2022/04/14 07:09:37;;;;;;;42.65;23.70;;;;;;;;;;5029730;28;20471;-67
2022/04/14 07:12:04;;;;;;;36.33;23.98;;;;;;;;;;5032876;28;20049;-67
2022/04/14 07:14:31;;;;;;;31.30;22.77;;;;;;;;;;5033616;28;20050;-67
2022/04/14 07:16:58;;;;;;;32.63;22.85;;;;;;;;;;5033304;28;20187;-67
2022/04/14 07:19:25;;;;;;;38.33;22.77;;;;;;;;;;5017982;28;20061;-67
2022/04/14 07:21:55;;;;;;;34.95;23.05;;;;;;;;;;5009874;28;20058;-69
2022/04/14 07:24:22;;;;;;;28.80;21.45;;;;;;;;;;5014382;28;20125;-70
2022/04/14 07:26:49;;;;;;;30.83;22.27;;;;;;;;;;5018874;28;20053;-70
2022/04/14 07:29:16;;;;;;;30.02;20.40;;;;;;;;;;5018347;28;20057;-70
2022/04/14 07:31:45;;;;;;;31.23;21.50;;;;;;;;;;5021801;28;20115;-68
2022/04/14 07:34:14;;;;;;;27.85;20.63;;;;;;;;;;5022401;28;20050;-72
2022/04/14 07:36:40;;;;;;;29.40;20.70;;;;;;;;;;5018692;28;20104;-65
2022/04/14 07:39:09;;;;;;;31.35;21.77;;;;;;;;;;5022436;28;20513;-65
2022/04/14 07:41:36;;;;;;;29.63;19.73;;;;;;;;;;5016828;28;20056;-66
2022/04/14 07:44:04;;;;;;;25.10;19.17;;;;;;;;;;5018600;28;20049;-65
2022/04/14 07:46:30;;;;;;;25.77;19.75;;;;;;;;;;5020311;28;20041;-67
2022/04/14 07:48:57;;;;;;;33.92;20.92;;;;;;;;;;5025560;28;20045;-68
2022/04/14 07:51:24;;;;;;;28.20;19.25;;;;;;;;;;5023238;28;20053;-66
2022/04/14 07:53:52;;;;;;;25.70;18.42;;;;;;;;;;5022979;28;20315;-68
2022/04/14 07:56:20;;;;;;;27.00;17.25;;;;;;;;;;5017649;28;20136;-67
2022/04/14 07:58:47;;;;;;;29.90;19.27;;;;;;;;;;5019416;28;20065;-66
2022/04/14 08:01:13;;;;;;;26.80;18.02;;;;;;;;;;5020966;28;20077;-66
2022/04/14 08:03:40;;;;;;;27.02;18.55;;;;;;;;;;5020180;28;20050;-66
2022/04/14 08:06:07;;;;;;;25.73;17.90;;;;;;;;;;5019668;28;20049;-66
2022/04/14 08:08:34;;;;;;;24.25;18.38;;;;;;;;;;5019903;28;20041;-66
2022/04/14 08:11:03;;;;;;;24.75;18.67;;;;;;;;;;5018290;28;20087;-65
2022/04/14 08:13:35;;;;;;;26.40;17.77;;;;;;;;;;5003428;28;20082;-65
2022/04/14 08:16:06;;;;;;;28.05;18.17;;;;;;;;;;5002725;28;20049;-65
2022/04/14 08:18:36;;;;;;;24.45;17.02;;;;;;;;;;4999104;28;20501;-67
2022/04/14 08:21:03;;;;;;;23.33;16.23;;;;;;;;;;5000958;28;20469;-66
2022/04/14 08:23:30;;;;;;;26.42;17.23;;;;;;;;;;4998248;28;20053;-65
2022/04/14 08:25:57;;;;;;;23.92;17.70;;;;;;;;;;4997931;28;20050;-66
2022/04/14 08:28:43;;;;;;;23.45;18.35;;;;;;;;;;5003742;28;20058;-65
2022/04/14 08:31:11;;;;;;;26.48;18.55;;;;;;;;;;5000822;28;20054;-65
2022/04/14 08:33:37;;;;;;;25.77;17.70;;;;;;;;;;5002334;28;20088;-65
2022/04/14 08:36:15;;;;;;;20.00;16.33;;;;;;;;;;4998342;28;20050;-74
2022/04/14 08:38:46;;;;;;;25.73;17.33;;;;;;;;;;4975527;28;20050;-76
2022/04/14 08:41:17;;;;;;;27.83;17.15;;;;;;;;;;4979898;28;20053;-71
2022/04/14 08:44:10;;;;;;;25.77;17.98;;;;;;;;;;4999899;28;20054;-68
2022/04/14 08:46:37;;;;;;;21.40;15.63;;;;;;;;;;4993961;28;20050;-68
2022/04/14 08:49:04;;;;;;;22.10;17.05;;;;;;;;;;5002147;28;20170;-69
2022/04/14 08:51:36;;;;;;;25.95;16.42;;;;;;;;;;4998527;28;20061;-68
2022/04/14 08:54:03;;;;;;;25.67;16.65;;;;;;;;;;4996851;28;20065;-66
2022/04/14 08:56:30;;;;;;;25.25;16.33;;;;;;;;;;4997075;28;20057;-67
2022/04/14 08:58:56;;;;;;;25.60;17.70;;;;;;;;;;5000792;28;20050;-66
2022/04/14 09:01:26;;;;;;;23.00;17.13;;;;;;;;;;5010400;23;20047;-67
2022/04/14 09:03:57;;;;;;;23.63;16.98;;;;;;;;;;4928722;28;20062;-68
2022/04/14 09:06:27;;;;;;;22.88;16.10;;;;;;;;;;4961162;28;20083;-67
2022/04/14 09:08:58;;;;;;;24.27;17.30;;;;;;;;;;4960883;28;20109;-68
2022/04/14 09:11:26;;;;;;;21.20;16.52;;;;;;;;;;4960035;28;20054;-67
2022/04/14 09:13:53;;;;;;;24.48;17.23;;;;;;;;;;4977658;28;20564;-67
2022/04/14 09:16:20;;;;;;;21.88;16.10;;;;;;;;;;4940617;28;20055;-66
2022/04/14 09:18:47;;;;;;;23.35;16.55;;;;;;;;;;4978609;28;20377;-68
2022/04/14 09:23:50;;;;;;;20.80;16.42;;;;;;;;;;4313763;26;20058;-66
2022/04/14 09:26:23;;;;;;;22.92;15.18;;;;;;;;;;4980370;28;20051;-66
2022/04/14 09:29:01;;;;;;;22.67;15.45;;;;;;;;;;4980119;28;20058;-65
2022/04/14 09:31:28;;;;;;;21.17;16.27;;;;;;;;;;5029376;23;20050;-67
2022/04/14 09:33:55;;;;;;;18.75;15.27;;;;;;;;;;4974464;28;20194;-68
2022/04/14 09:36:23;;;;;;;23.77;16.17;;;;;;;;;;4961695;28;20050;-68
2022/04/14 09:39:01;;;;;;;23.67;16.80;;;;;;;;;;4974383;28;20057;-76
2022/04/14 09:41:46;;;;;;;19.10;15.18;;;;;;;;;;4959542;28;20058;-71
2022/04/14 09:44:14;;;;;;;20.02;14.85;;;;;;;;;;4964649;28;20047;-68
2022/04/14 09:46:46;;;;;;;25.38;16.23;;;;;;;;;;4957090;28;20129;-73
2022/04/14 09:49:16;;;;;;;20.70;16.10;;;;;;;;;;4945645;28;20437;-76
2022/04/14 09:51:44;;;;;;;20.33;15.18;;;;;;;;;;4978744;28;20054;-73
2022/04/14 09:54:28;;;;;;;17.83;14.70;;;;;;;;;;4974602;28;20055;-73
2022/04/14 09:56:56;;;;;;;19.63;14.23;;;;;;;;;;4961277;28;20074;-72
2022/04/14 09:59:24;;;;;;;19.83;14.05;;;;;;;;;;4960442;28;20051;-74
2022/04/14 10:02:12;;;;;;;18.65;14.18;;;;;;;;;;4956750;28;20051;-73
2022/04/14 10:04:46;;;;;;;21.05;14.95;;;;;;;;;;4961649;28;20043;-76
2022/04/14 10:07:19;;;;;;;18.15;13.98;;;;;;;;;;4952235;28;20047;-73
2022/04/14 10:09:48;;;;;;;17.63;13.45;;;;;;;;;;4975836;28;20118;-71
2022/04/14 10:12:18;;;;;;;19.88;13.00;;;;;;;;;;4960925;28;20047;-68
2022/04/14 10:14:56;;;;;;;19.15;13.73;;;;;;;;;;4963961;28;20062;-67
2022/04/14 10:17:24;;;;;;;19.92;14.27;;;;;;;;;;4962563;28;20054;-67
2022/04/14 10:19:51;;;;;;;14.95;12.98;;;;;;;;;;4944497;28;20047;-67
2022/04/14 10:22:18;;;;;;;16.02;13.55;;;;;;;;;;4960940;28;20074;-71
2022/04/14 10:24:46;;;;;;;17.63;13.20;;;;;;;;;;4964441;28;20058;-78
2022/04/14 10:27:17;;;;;;;23.15;13.40;;;;;;;;;;4959671;28;20054;-79
2022/04/14 10:29:43;;;;;;;19.65;13.90;;;;;;;;;;4957915;28;20062;-77
2022/04/14 10:32:11;;;;;;;17.20;13.43;;;;;;;;;;4959961;28;20051;-68
2022/04/14 10:34:38;;;;;;;15.82;12.23;;;;;;;;;;4975591;28;20047;-74
2022/04/14 10:37:09;;;;;;;18.90;13.88;;;;;;;;;;4961437;28;20051;-74
2022/04/14 10:39:49;;;;;;;22.27;15.07;;;;;;;;;;4965371;28;20109;-74
2022/04/14 10:42:18;;;;;;;18.48;13.55;;;;;;;;;;4960234;28;20460;-72
2022/04/14 10:44:49;;;;;;;19.00;14.32;;;;;;;;;;4961752;28;20110;-75
2022/04/14 10:47:34;;;;;;;19.50;13.75;;;;;;;;;;4972938;28;20086;-74
2022/04/14 10:50:02;;;;;;;23.88;13.07;;;;;;;;;;4976688;28;20141;-72
2022/04/14 10:52:35;;;;;;;17.25;13.77;;;;;;;;;;4959031;28;20322;-73
2022/04/14 10:55:03;;;;;;;18.42;13.35;;;;;;;;;;4972991;28;20090;-69
2022/04/14 10:57:36;;;;;;;18.10;13.32;;;;;;;;;;4960086;28;20123;-72
2022/04/14 11:00:18;;;;;;;16.80;11.45;;;;;;;;;;4957868;28;20051;-70
2022/04/14 11:03:07;;;;;;;16.48;12.25;;;;;;;;;;4958481;28;20106;-71
2022/04/14 11:05:48;;;;;;;18.52;12.85;;;;;;;;;;4956890;28;20075;-73
2022/04/14 11:08:27;;;;;;;19.35;14.25;;;;;;;;;;4943343;28;20091;-72
2022/04/14 11:11:07;;;;;;;18.23;13.65;;;;;;;;;;4960139;28;20054;-73
2022/04/14 11:13:53;;;;;;;20.35;14.65;;;;;;;;;;4973780;28;20051;-72
2022/04/14 11:16:38;;;;;;;19.17;13.63;;;;;;;;;;4958861;28;20047;-72
2022/04/14 11:19:24;;;;;;;19.77;13.48;;;;;;;;;;4959541;28;20067;-75
2022/04/14 11:22:18;;;;;;;17.80;12.68;;;;;;;;;;4960865;28;20478;-69
2022/04/14 11:24:44;;;;;;;16.33;12.68;;;;;;;;;;4964258;28;20051;-69
2022/04/14 11:27:17;;;;;;;19.17;14.07;;;;;;;;;;4977607;28;20098;-70
2022/04/14 11:29:49;;;;;;;18.42;13.70;;;;;;;;;;4960271;28;20093;-69
2022/04/14 11:32:34;;;;;;;23.58;12.35;;;;;;;;;;4945096;28;20051;-67
2022/04/14 11:35:20;;;;;;;18.15;10.90;;;;;;;;;;4951786;28;20476;-68
2022/04/14 11:37:49;;;;;;;17.83;11.93;;;;;;;;;;4957300;28;20059;-68
2022/04/14 11:40:22;;;;;;;20.15;12.68;;;;;;;;;;4958693;28;20058;-68
2022/04/14 11:42:54;;;;;;;18.85;11.60;;;;;;;;;;4960080;28;20572;-67
2022/04/14 11:45:24;;;;;;;20.25;12.30;;;;;;;;;;4972627;28;20094;-68
2022/04/14 11:48:00;;;;;;;15.82;12.73;;;;;;;;;;4961150;28;20050;-68
2022/04/14 11:50:28;;;;;;;16.60;10.65;;;;;;;;;;4972418;28;20043;-68
2022/04/14 11:52:59;;;;;;;16.52;11.63;;;;;;;;;;4957004;28;20051;-68
2022/04/14 11:55:40;;;;;;;16.15;11.93;;;;;;;;;;4961523;28;20059;-67
2022/04/14 11:58:10;;;;;;;17.95;11.48;;;;;;;;;;4959126;28;20055;-67
2022/04/14 12:00:44;;;;;;;20.67;12.57;;;;;;;;;;4976591;28;20055;-67
2022/04/14 12:03:12;;;;;;;17.95;12.45;;;;;;;;;;4970873;28;20069;-67
2022/04/14 12:05:40;;;;;;;15.43;12.57;;;;;;;;;;4963164;28;20562;-67
2022/04/14 12:08:10;;;;;;;18.05;11.77;;;;;;;;;;4954651;28;20529;-67
2022/04/14 12:10:37;;;;;;;15.40;11.77;;;;;;;;;;4981220;28;20093;-67
2022/04/14 12:13:08;;;;;;;14.15;10.15;;;;;;;;;;4964617;28;20050;-67
2022/04/14 12:15:36;;;;;;;17.23;11.88;;;;;;;;;;4968855;28;20043;-67
2022/04/14 12:18:12;;;;;;;13.63;11.60;;;;;;;;;;4968110;28;20054;-67
2022/04/14 12:20:41;;;;;;;18.55;12.10;;;;;;;;;;4968135;28;20062;-67
2022/04/14 12:23:08;;;;;;;12.02;10.73;;;;;;;;;;4965074;28;20051;-67
2022/04/14 12:25:35;;;;;;;11.50;8.68;;;;;;;;;;4981247;28;20497;-70
2022/04/14 12:28:03;;;;;;;16.17;10.63;;;;;;;;;;4944934;28;20490;-67
2022/04/14 12:30:30;;;;;;;20.05;10.50;;;;;;;;;;4982500;28;20054;-66
2022/04/14 12:33:06;;;;;;;12.93;8.52;;;;;;;;;;4980630;28;20106;-67
2022/04/14 12:35:34;;;;;;;13.07;10.45;;;;;;;;;;4969941;28;20109;-65
2022/04/14 12:38:28;;;;;;;12.18;9.05;;;;;;;;;;4970481;28;20054;-69
2022/04/14 12:41:03;;;;;;;17.30;9.55;;;;;;;;;;4964009;28;20066;-69
2022/04/14 12:43:37;;;;;;;10.18;8.93;;;;;;;;;;4980319;28;20391;-69
2022/04/14 12:46:19;;;;;;;12.85;9.20;;;;;;;;;;4968588;28;20494;-72
2022/04/14 12:48:46;;;;;;;15.85;10.82;;;;;;;;;;4954877;28;20055;-67
2022/04/14 12:51:13;;;;;;;13.45;9.77;;;;;;;;;;4964883;28;20075;-71
2022/04/14 12:53:39;;;;;;;13.02;8.98;;;;;;;;;;4969519;28;20043;-74
2022/04/14 12:56:13;;;;;;;12.20;8.52;;;;;;;;;;4978887;28;20078;-75
2022/04/14 12:59:08;;;;;;;15.38;9.65;;;;;;;;;;4951484;28;20135;-73
2022/04/14 13:01:59;;;;;;;18.23;10.50;;;;;;;;;;4984078;28;20412;-74
2022/04/14 13:04:44;;;;;;;13.40;9.43;;;;;;;;;;4955466;28;20055;-72
2022/04/14 13:07:17;;;;;;;14.88;9.60;;;;;;;;;;4970182;28;20438;-75
2022/04/14 13:09:56;;;;;;;;;;;;;;;;;;4952632;28;20056;-68
2022/04/14 13:12:42;;;;;;;11.07;8.45;;;;;;;;;;4962730;28;19945;-69
2022/04/14 13:15:10;;;;;;;13.20;9.23;;;;;;;;;;4966300;28;20047;-66
2022/04/14 13:17:38;;;;;;;11.82;7.70;;;;;;;;;;4966350;28;20113;-66
2022/04/14 13:20:09;;;;;;;9.25;7.65;;;;;;;;;;4962528;28;20055;-71
2022/04/14 13:22:36;;;;;;;14.18;8.85;;;;;;;;;;4961591;28;20073;-69
2022/04/14 13:25:04;;;;;;;12.02;8.85;;;;;;;;;;4960117;28;20130;-71
2022/04/14 13:27:30;;;;;;;12.65;7.22;;;;;;;;;;4964709;28;20055;-69
2022/04/14 13:29:59;;;;;;;10.00;7.53;;;;;;;;;;4976520;28;20109;-70
2022/04/14 13:32:27;;;;;;;10.68;8.57;;;;;;;;;;4959296;28;20054;-69
2022/04/14 13:34:54;;;;;;;7.97;6.00;;;;;;;;;;4965155;28;20054;-69
2022/04/14 13:37:21;;;;;;;10.00;7.38;;;;;;;;;;4962198;28;20105;-71
2022/04/14 13:39:48;;;;;;;14.43;7.43;;;;;;;;;;4976927;28;20051;-71
2022/04/14 13:42:15;;;;;;;9.95;7.10;;;;;;;;;;4960714;28;20046;-70
2022/04/14 13:44:43;;;;;;;9.85;7.78;;;;;;;;;;4979737;28;20058;-69
2022/04/14 13:47:10;;;;;;;9.40;7.13;;;;;;;;;;4960993;28;20047;-69
2022/04/14 13:49:37;;;;;;;13.43;9.85;;;;;;;;;;4962528;28;20106;-73
2022/04/14 13:52:04;;;;;;;11.02;8.27;;;;;;;;;;4958423;28;20051;-68
2022/04/14 13:54:34;;;;;;;12.25;10.00;;;;;;;;;;4959974;28;20464;-69
2022/04/14 13:57:02;;;;;;;11.48;9.40;;;;;;;;;;4957828;28;20557;-70
2022/04/14 13:59:28;;;;;;;13.57;9.98;;;;;;;;;;4961857;28;20498;-68
2022/04/14 14:01:58;;;;;;;13.88;9.63;;;;;;;;;;4981000;28;20062;-69
2022/04/14 14:04:25;;;;;;;12.27;9.43;;;;;;;;;;4966553;28;20050;-68
2022/04/14 14:06:51;;;;;;;9.20;8.32;;;;;;;;;;4975738;28;20043;-69
2022/04/14 14:09:18;;;;;;;12.88;9.90;;;;;;;;;;4959745;28;20074;-71
2022/04/14 14:11:45;;;;;;;12.05;9.93;;;;;;;;;;4960699;28;20051;-69
2022/04/14 14:14:11;;;;;;;16.02;10.98;;;;;;;;;;4960993;28;20047;-72
2022/04/14 14:16:38;;;;;;;14.00;10.40;;;;;;;;;;4960864;28;20109;-72
2022/04/14 14:19:05;;;;;;;13.85;11.13;;;;;;;;;;4962241;28;20569;-73
2022/04/14 14:21:31;;;;;;;15.32;9.95;;;;;;;;;;4973612;28;20192;-72
2022/04/14 14:23:58;;;;;;;14.32;10.65;;;;;;;;;;4961497;28;20130;-69
2022/04/14 14:26:25;;;;;;;12.20;10.10;;;;;;;;;;4976169;28;20086;-72
2022/04/14 14:28:51;;;;;;;13.90;9.82;;;;;;;;;;4976280;28;20050;-71
2022/04/14 14:31:22;;;;;;;13.70;8.93;;;;;;;;;;4960950;28;20042;-69
2022/04/14 14:33:49;;;;;;;12.38;10.93;;;;;;;;;;4943281;28;20399;-70
2022/04/14 14:36:16;;;;;;;13.23;10.38;;;;;;;;;;4959315;28;20057;-69
2022/04/14 14:38:46;;;;;;;13.98;9.38;;;;;;;;;;4960373;28;20059;-70
2022/04/14 14:41:13;;;;;;;11.88;9.18;;;;;;;;;;4958121;28;20417;-69
2022/04/14 14:43:40;;;;;;;15.43;9.77;;;;;;;;;;4944197;28;20118;-69